sensor_id;sensor_type;location;lat;lon;timestamp;pressure;altitude;pressure_sealevel;temperature;humidity
967;BME280;56108;48.730;9.304;2023-05-03T00:01:08;98302.97;;;8.39;100.00
967;BME280;56108;48.730;9.304;2023-05-03T00:03:16;98302.25;;;8.35;100.00
967;BME280;56108;48.730;9.304;2023-05-03T00:05:26;98312.38;;;8.27;100.00
967;BME280;56108;48.730;9.304;2023-05-03T00:07:35;98314.63;;;8.36;100.00
967;BME280;56108;48.730;9.304;2023-05-03T00:09:46;98309.31;;;8.35;100.00
967;BME280;56108;48.730;9.304;2023-05-03T00:11:54;98317.81;;;8.24;100.00
967;BME280;56108;48.730;9.304;2023-05-03T00:14:04;98308.44;;;8.36;100.00
967;BME280;56108;48.730;9.304;2023-05-03T00:16:12;98313.94;;;8.31;100.00
967;BME280;56108;48.730;9.304;2023-05-03T00:18:21;98312.38;;;8.27;100.00
967;BME280;56108;48.730;9.304;2023-05-03T00:20:29;98312.59;;;8.23;100.00
967;BME280;56108;48.730;9.304;2023-05-03T00:22:38;98306.94;;;8.30;100.00
967;BME280;56108;48.730;9.304;2023-05-03T00:24:48;98310.16;;;8.18;100.00
967;BME280;56108;48.730;9.304;2023-05-03T00:26:56;98307.16;;;8.26;100.00
967;BME280;56108;48.730;9.304;2023-05-03T00:29:04;98305.66;;;8.20;100.00
967;BME280;56108;48.730;9.304;2023-05-03T00:31:12;98301.97;;;8.23;100.00
967;BME280;56108;48.730;9.304;2023-05-03T00:33:20;98307.50;;;8.18;100.00
967;BME280;56108;48.730;9.304;2023-05-03T00:35:28;98300.72;;;8.13;100.00
967;BME280;56108;48.730;9.304;2023-05-03T00:37:37;98300.94;;;8.08;100.00
967;BME280;56108;48.730;9.304;2023-05-03T00:39:47;98302.38;;;8.15;100.00
967;BME280;56108;48.730;9.304;2023-05-03T00:41:56;98303.91;;;8.19;100.00
967;BME280;56108;48.730;9.304;2023-05-03T00:44:05;98310.88;;;8.22;100.00
967;BME280;56108;48.730;9.304;2023-05-03T00:46:13;98306.56;;;8.19;100.00
967;BME280;56108;48.730;9.304;2023-05-03T00:48:21;98304.38;;;8.10;100.00
967;BME280;56108;48.730;9.304;2023-05-03T00:50:30;98298.06;;;8.13;100.00
967;BME280;56108;48.730;9.304;2023-05-03T00:52:38;98295.00;;;8.03;100.00
967;BME280;56108;48.730;9.304;2023-05-03T00:54:50;98296.88;;;8.01;100.00
967;BME280;56108;48.730;9.304;2023-05-03T00:56:58;98291.44;;;8.04;100.00
967;BME280;56108;48.730;9.304;2023-05-03T00:59:10;98286.47;;;7.96;100.00
967;BME280;56108;48.730;9.304;2023-05-03T01:01:19;98291.69;;;7.98;100.00
967;BME280;56108;48.730;9.304;2023-05-03T01:03:28;98279.56;;;7.94;100.00
967;BME280;56108;48.730;9.304;2023-05-03T01:05:43;98280.66;;;8.07;100.00
967;BME280;56108;48.730;9.304;2023-05-03T01:08:01;98288.41;;;7.93;100.00
967;BME280;56108;48.730;9.304;2023-05-03T01:10:29;98285.56;;;7.78;100.00
967;BME280;56108;48.730;9.304;2023-05-03T01:12:46;98278.53;;;7.77;100.00
967;BME280;56108;48.730;9.304;2023-05-03T01:15:01;98282.41;;;7.70;100.00
967;BME280;56108;48.730;9.304;2023-05-03T01:17:13;98274.53;;;7.69;100.00
967;BME280;56108;48.730;9.304;2023-05-03T01:19:27;98277.13;;;7.70;100.00
967;BME280;56108;48.730;9.304;2023-05-03T01:21:37;98272.19;;;7.63;100.00
967;BME280;56108;48.730;9.304;2023-05-03T01:23:54;98266.09;;;7.61;100.00
967;BME280;56108;48.730;9.304;2023-05-03T01:26:22;98275.38;;;7.50;100.00
967;BME280;56108;48.730;9.304;2023-05-03T01:28:31;98260.50;;;7.48;100.00
967;BME280;56108;48.730;9.304;2023-05-03T01:30:41;98261.72;;;7.41;100.00
967;BME280;56108;48.730;9.304;2023-05-03T01:32:55;98259.06;;;7.41;100.00
967;BME280;56108;48.730;9.304;2023-05-03T01:35:11;98251.97;;;7.41;100.00
967;BME280;56108;48.730;9.304;2023-05-03T01:37:24;98251.28;;;7.38;100.00
967;BME280;56108;48.730;9.304;2023-05-03T01:39:36;98247.97;;;7.32;100.00
967;BME280;56108;48.730;9.304;2023-05-03T01:41:49;98246.19;;;7.33;100.00
967;BME280;56108;48.730;9.304;2023-05-03T01:43:58;98244.81;;;7.24;100.00
967;BME280;56108;48.730;9.304;2023-05-03T01:46:08;98243.47;;;7.16;100.00
967;BME280;56108;48.730;9.304;2023-05-03T01:48:21;98230.28;;;7.14;100.00
967;BME280;56108;48.730;9.304;2023-05-03T01:50:29;98238.41;;;7.10;100.00
967;BME280;56108;48.730;9.304;2023-05-03T01:52:37;98238.69;;;7.03;100.00
967;BME280;56108;48.730;9.304;2023-05-03T01:54:46;98234.63;;;6.96;100.00
967;BME280;56108;48.730;9.304;2023-05-03T01:56:58;98228.28;;;7.00;100.00
967;BME280;56108;48.730;9.304;2023-05-03T01:59:10;98229.34;;;6.96;100.00
967;BME280;56108;48.730;9.304;2023-05-03T02:01:18;98231.41;;;6.90;100.00
967;BME280;56108;48.730;9.304;2023-05-03T02:03:26;98229.81;;;6.86;100.00
967;BME280;56108;48.730;9.304;2023-05-03T02:05:34;98226.63;;;6.77;100.00
967;BME280;56108;48.730;9.304;2023-05-03T02:07:43;98227.66;;;6.75;100.00
967;BME280;56108;48.730;9.304;2023-05-03T02:09:51;98212.75;;;6.72;100.00
967;BME280;56108;48.730;9.304;2023-05-03T02:12:02;98216.47;;;6.68;100.00
967;BME280;56108;48.730;9.304;2023-05-03T02:14:11;98218.31;;;6.66;100.00
967;BME280;56108;48.730;9.304;2023-05-03T02:16:19;98209.59;;;6.64;100.00
967;BME280;56108;48.730;9.304;2023-05-03T02:18:30;98209.88;;;6.58;100.00
967;BME280;56108;48.730;9.304;2023-05-03T02:20:43;98208.75;;;6.64;100.00
967;BME280;56108;48.730;9.304;2023-05-03T02:22:52;98202.72;;;6.60;100.00
967;BME280;56108;48.730;9.304;2023-05-03T02:25:00;98210.56;;;6.62;100.00
967;BME280;56108;48.730;9.304;2023-05-03T02:27:10;98207.16;;;6.60;100.00
967;BME280;56108;48.730;9.304;2023-05-03T02:29:20;98205.38;;;6.60;100.00
967;BME280;56108;48.730;9.304;2023-05-03T02:31:28;98203.00;;;6.54;100.00
967;BME280;56108;48.730;9.304;2023-05-03T02:33:36;98199.63;;;6.50;100.00
967;BME280;56108;48.730;9.304;2023-05-03T02:35:44;98193.38;;;6.51;100.00
967;BME280;56108;48.730;9.304;2023-05-03T02:37:52;98196.19;;;6.48;100.00
967;BME280;56108;48.730;9.304;2023-05-03T02:40:03;98197.25;;;6.44;100.00
967;BME280;56108;48.730;9.304;2023-05-03T02:42:16;98191.94;;;6.44;100.00
967;BME280;56108;48.730;9.304;2023-05-03T02:44:24;98192.88;;;6.43;100.00
967;BME280;56108;48.730;9.304;2023-05-03T02:46:32;98189.38;;;6.43;100.00
967;BME280;56108;48.730;9.304;2023-05-03T02:48:40;98186.06;;;6.38;100.00
967;BME280;56108;48.730;9.304;2023-05-03T02:50:49;98181.84;;;6.54;100.00
967;BME280;56108;48.730;9.304;2023-05-03T02:52:58;98180.25;;;6.50;100.00
967;BME280;56108;48.730;9.304;2023-05-03T02:55:08;98189.13;;;6.49;100.00
967;BME280;56108;48.730;9.304;2023-05-03T02:57:22;98186.59;;;6.46;100.00
967;BME280;56108;48.730;9.304;2023-05-03T02:59:30;98191.28;;;6.39;100.00
967;BME280;56108;48.730;9.304;2023-05-03T03:01:39;98190.63;;;6.34;100.00
967;BME280;56108;48.730;9.304;2023-05-03T03:03:49;98188.97;;;6.32;100.00
967;BME280;56108;48.730;9.304;2023-05-03T03:05:57;98180.91;;;6.35;100.00
967;BME280;56108;48.730;9.304;2023-05-03T03:08:06;98177.50;;;6.33;100.00
967;BME280;56108;48.730;9.304;2023-05-03T03:10:14;98170.22;;;6.38;100.00
967;BME280;56108;48.730;9.304;2023-05-03T03:12:26;98170.41;;;6.33;100.00
967;BME280;56108;48.730;9.304;2023-05-03T03:14:36;98171.34;;;6.32;100.00
967;BME280;56108;48.730;9.304;2023-05-03T03:16:50;98174.56;;;6.18;100.00
967;BME280;56108;48.730;9.304;2023-05-03T03:18:59;98175.50;;;6.17;100.00
967;BME280;56108;48.730;9.304;2023-05-03T03:21:07;98166.94;;;6.11;100.00
967;BME280;56108;48.730;9.304;2023-05-03T03:23:15;98169.19;;;5.99;100.00
967;BME280;56108;48.730;9.304;2023-05-03T03:25:24;98159.47;;;6.00;100.00
967;BME280;56108;48.730;9.304;2023-05-03T03:27:36;98168.22;;;6.02;100.00
967;BME280;56108;48.730;9.304;2023-05-03T03:29:44;98156.91;;;5.98;100.00
967;BME280;56108;48.730;9.304;2023-05-03T03:31:54;98159.75;;;5.94;100.00
967;BME280;56108;48.730;9.304;2023-05-03T03:34:02;98160.81;;;5.88;100.00
967;BME280;56108;48.730;9.304;2023-05-03T03:36:10;98158.19;;;5.88;100.00
967;BME280;56108;48.730;9.304;2023-05-03T03:38:21;98153.72;;;5.90;100.00
967;BME280;56108;48.730;9.304;2023-05-03T03:40:36;98159.84;;;5.91;100.00
967;BME280;56108;48.730;9.304;2023-05-03T03:42:47;98163.38;;;5.91;100.00
967;BME280;56108;48.730;9.304;2023-05-03T03:44:55;98163.31;;;5.93;100.00
967;BME280;56108;48.730;9.304;2023-05-03T03:47:04;98161.25;;;5.99;100.00
967;BME280;56108;48.730;9.304;2023-05-03T03:49:13;98166.03;;;5.90;100.00
967;BME280;56108;48.730;9.304;2023-05-03T03:51:20;98166.63;;;5.98;100.00
967;BME280;56108;48.730;9.304;2023-05-03T03:53:30;98157.84;;;5.97;100.00
967;BME280;56108;48.730;9.304;2023-05-03T03:55:38;98165.88;;;5.94;100.00
967;BME280;56108;48.730;9.304;2023-05-03T03:57:49;98167.75;;;5.92;100.00
967;BME280;56108;48.730;9.304;2023-05-03T03:59:58;98158.50;;;6.03;100.00
967;BME280;56108;48.730;9.304;2023-05-03T04:02:16;98168.69;;;6.12;100.00
967;BME280;56108;48.730;9.304;2023-05-03T04:04:25;98164.38;;;6.09;100.00
967;BME280;56108;48.730;9.304;2023-05-03T04:06:33;98169.47;;;6.14;100.00
967;BME280;56108;48.730;9.304;2023-05-03T04:08:48;98163.81;;;6.23;100.00
967;BME280;56108;48.730;9.304;2023-05-03T04:10:56;98168.91;;;6.27;100.00
967;BME280;56108;48.730;9.304;2023-05-03T04:13:06;98169.38;;;6.37;100.00
967;BME280;56108;48.730;9.304;2023-05-03T04:15:15;98174.22;;;6.46;100.00
967;BME280;56108;48.730;9.304;2023-05-03T04:17:24;98176.88;;;6.46;100.00
967;BME280;56108;48.730;9.304;2023-05-03T04:19:33;98182.28;;;6.64;100.00
967;BME280;56108;48.730;9.304;2023-05-03T04:21:43;98189.09;;;6.69;100.00
967;BME280;56108;48.730;9.304;2023-05-03T04:23:53;98197.78;;;6.92;100.00
967;BME280;56108;48.730;9.304;2023-05-03T04:26:03;98210.06;;;6.93;100.00
967;BME280;56108;48.730;9.304;2023-05-03T04:28:23;98216.03;;;6.98;100.00
967;BME280;56108;48.730;9.304;2023-05-03T04:30:33;98232.28;;;7.09;100.00
967;BME280;56108;48.730;9.304;2023-05-03T04:32:42;98233.38;;;7.43;100.00
967;BME280;56108;48.730;9.304;2023-05-03T04:34:53;98249.97;;;7.65;100.00
967;BME280;56108;48.730;9.304;2023-05-03T04:37:02;98257.31;;;8.15;100.00
967;BME280;56108;48.730;9.304;2023-05-03T04:39:10;98285.31;;;8.57;100.00
967;BME280;56108;48.730;9.304;2023-05-03T04:41:21;98308.22;;;9.10;100.00
967;BME280;56108;48.730;9.304;2023-05-03T04:43:33;98330.94;;;9.66;100.00
967;BME280;56108;48.730;9.304;2023-05-03T04:45:41;98346.84;;;10.15;100.00
967;BME280;56108;48.730;9.304;2023-05-03T04:47:56;98346.66;;;10.81;100.00
967;BME280;56108;48.730;9.304;2023-05-03T04:50:06;98351.06;;;11.41;100.00
967;BME280;56108;48.730;9.304;2023-05-03T04:52:18;98355.97;;;11.91;100.00
967;BME280;56108;48.730;9.304;2023-05-03T04:54:26;98362.22;;;12.60;99.37
967;BME280;56108;48.730;9.304;2023-05-03T04:56:35;98362.09;;;13.16;91.45
967;BME280;56108;48.730;9.304;2023-05-03T04:58:52;98357.25;;;13.61;86.20
967;BME280;56108;48.730;9.304;2023-05-03T05:01:00;98359.19;;;14.33;80.08
967;BME280;56108;48.730;9.304;2023-05-03T05:03:09;98358.91;;;14.86;75.80
967;BME280;56108;48.730;9.304;2023-05-03T05:05:18;98381.22;;;15.46;68.52
967;BME280;56108;48.730;9.304;2023-05-03T05:07:26;98390.34;;;15.89;65.31
967;BME280;56108;48.730;9.304;2023-05-03T05:09:34;98392.63;;;15.72;63.87
967;BME280;56108;48.730;9.304;2023-05-03T05:11:43;98400.97;;;16.47;61.17
967;BME280;56108;48.730;9.304;2023-05-03T05:13:53;98416.44;;;16.88;58.50
967;BME280;56108;48.730;9.304;2023-05-03T05:16:01;98415.13;;;17.47;56.93
967;BME280;56108;48.730;9.304;2023-05-03T05:18:09;98430.66;;;17.43;55.32
967;BME280;56108;48.730;9.304;2023-05-03T05:20:18;98430.34;;;17.58;54.98
967;BME280;56108;48.730;9.304;2023-05-03T05:22:27;98438.31;;;17.59;54.62
967;BME280;56108;48.730;9.304;2023-05-03T05:24:37;98445.22;;;18.45;52.14
967;BME280;56108;48.730;9.304;2023-05-03T05:26:46;98455.06;;;18.56;51.66
967;BME280;56108;48.730;9.304;2023-05-03T05:28:57;98448.53;;;18.49;51.29
967;BME280;56108;48.730;9.304;2023-05-03T05:31:11;98452.25;;;18.67;51.94
967;BME280;56108;48.730;9.304;2023-05-03T05:33:20;98461.81;;;19.21;50.10
967;BME280;56108;48.730;9.304;2023-05-03T05:35:30;98458.84;;;19.24;49.77
967;BME280;56108;48.730;9.304;2023-05-03T05:37:39;98474.44;;;20.27;46.40
967;BME280;56108;48.730;9.304;2023-05-03T05:39:50;98474.50;;;19.89;46.44
967;BME280;56108;48.730;9.304;2023-05-03T05:42:01;98460.69;;;20.11;47.49
967;BME280;56108;48.730;9.304;2023-05-03T05:44:12;98491.00;;;21.26;43.60
967;BME280;56108;48.730;9.304;2023-05-03T05:46:22;98498.41;;;21.24;43.34
967;BME280;56108;48.730;9.304;2023-05-03T05:48:31;98500.88;;;21.81;42.57
967;BME280;56108;48.730;9.304;2023-05-03T05:50:39;98501.16;;;22.57;40.99
967;BME280;56108;48.730;9.304;2023-05-03T05:52:50;98502.84;;;22.58;40.21
967;BME280;56108;48.730;9.304;2023-05-03T05:55:01;98506.06;;;22.10;40.93
967;BME280;56108;48.730;9.304;2023-05-03T05:57:09;98504.63;;;22.67;40.06
967;BME280;56108;48.730;9.304;2023-05-03T05:59:20;98502.19;;;22.30;40.22
967;BME280;56108;48.730;9.304;2023-05-03T06:01:28;98506.03;;;22.80;39.10
967;BME280;56108;48.730;9.304;2023-05-03T06:03:38;98500.63;;;22.10;40.37
967;BME280;56108;48.730;9.304;2023-05-03T06:07:55;98481.69;;;20.37;43.38
967;BME280;56108;48.730;9.304;2023-05-03T06:10:06;98467.53;;;21.17;43.61
967;BME280;56108;48.730;9.304;2023-05-03T06:12:16;98466.41;;;19.89;45.25
967;BME280;56108;48.730;9.304;2023-05-03T06:14:27;98439.75;;;18.26;48.98
967;BME280;56108;48.730;9.304;2023-05-03T06:16:37;98446.69;;;18.80;48.57
967;BME280;56108;48.730;9.304;2023-05-03T06:18:46;98462.25;;;20.61;44.88
967;BME280;56108;48.730;9.304;2023-05-03T06:20:53;98473.59;;;20.27;44.36
967;BME280;56108;48.730;9.304;2023-05-03T06:23:02;98474.69;;;20.44;43.85
967;BME280;56108;48.730;9.304;2023-05-03T06:25:10;98450.47;;;19.47;46.33
967;BME280;56108;48.730;9.304;2023-05-03T06:27:23;98463.50;;;20.19;44.48
967;BME280;56108;48.730;9.304;2023-05-03T06:29:35;98478.59;;;21.69;41.98
967;BME280;56108;48.730;9.304;2023-05-03T06:31:43;98484.66;;;22.07;41.00
967;BME280;56108;48.730;9.304;2023-05-03T06:33:52;98503.53;;;23.79;38.64
967;BME280;56108;48.730;9.304;2023-05-03T06:36:00;98504.56;;;23.78;37.89
967;BME280;56108;48.730;9.304;2023-05-03T06:38:09;98487.03;;;21.84;41.33
967;BME280;56108;48.730;9.304;2023-05-03T06:40:18;98464.22;;;19.15;45.94
967;BME280;56108;48.730;9.304;2023-05-03T06:42:28;98465.50;;;21.01;43.65
967;BME280;56108;48.730;9.304;2023-05-03T06:44:55;98479.59;;;21.86;41.32
967;BME280;56108;48.730;9.304;2023-05-03T06:47:03;98480.09;;;22.25;41.39
967;BME280;56108;48.730;9.304;2023-05-03T06:49:11;98489.34;;;23.51;38.89
967;BME280;56108;48.730;9.304;2023-05-03T06:51:19;98491.66;;;24.13;37.64
967;BME280;56108;48.730;9.304;2023-05-03T06:53:31;98494.34;;;23.72;37.10
967;BME280;56108;48.730;9.304;2023-05-03T06:55:42;98461.41;;;23.91;37.65
967;BME280;56108;48.730;9.304;2023-05-03T06:57:51;98429.59;;;23.51;37.80
967;BME280;56108;48.730;9.304;2023-05-03T07:00:02;98437.13;;;24.78;35.53
967;BME280;56108;48.730;9.304;2023-05-03T07:02:11;98430.81;;;25.79;34.87
967;BME280;56108;48.730;9.304;2023-05-03T07:04:19;98427.59;;;24.74;35.15
967;BME280;56108;48.730;9.304;2023-05-03T07:06:27;98427.84;;;25.58;35.44
967;BME280;56108;48.730;9.304;2023-05-03T07:08:48;98428.25;;;25.77;35.06
967;BME280;56108;48.730;9.304;2023-05-03T07:10:57;98425.41;;;25.63;34.78
967;BME280;56108;48.730;9.304;2023-05-03T07:13:05;98417.72;;;26.12;34.38
967;BME280;56108;48.730;9.304;2023-05-03T07:15:15;98409.03;;;23.49;37.38
967;BME280;56108;48.730;9.304;2023-05-03T07:17:24;98420.06;;;24.84;35.49
967;BME280;56108;48.730;9.304;2023-05-03T07:19:32;98414.66;;;25.92;34.34
967;BME280;56108;48.730;9.304;2023-05-03T07:21:41;98391.19;;;25.83;34.15
967;BME280;56108;48.730;9.304;2023-05-03T07:23:49;98378.91;;;25.64;34.34
967;BME280;56108;48.730;9.304;2023-05-03T07:25:57;98383.69;;;25.85;34.69
967;BME280;56108;48.730;9.304;2023-05-03T07:28:05;98372.84;;;23.48;37.94
967;BME280;56108;48.730;9.304;2023-05-03T07:30:16;98361.72;;;21.10;40.90
967;BME280;56108;48.730;9.304;2023-05-03T07:32:26;98352.28;;;21.50;42.62
967;BME280;56108;48.730;9.304;2023-05-03T07:34:34;98356.47;;;21.88;41.88
967;BME280;56108;48.730;9.304;2023-05-03T07:36:42;98362.50;;;23.52;39.35
967;BME280;56108;48.730;9.304;2023-05-03T07:38:53;98367.16;;;24.31;36.09
967;BME280;56108;48.730;9.304;2023-05-03T07:41:02;98358.75;;;23.36;37.73
967;BME280;56108;48.730;9.304;2023-05-03T07:43:10;98347.06;;;21.31;42.63
967;BME280;56108;48.730;9.304;2023-05-03T07:45:23;98347.19;;;20.94;44.18
967;BME280;56108;48.730;9.304;2023-05-03T07:47:31;98354.84;;;20.53;45.44
967;BME280;56108;48.730;9.304;2023-05-03T07:49:42;98345.75;;;18.33;49.60
967;BME280;56108;48.730;9.304;2023-05-03T07:51:51;98344.59;;;18.25;51.10
967;BME280;56108;48.730;9.304;2023-05-03T07:53:59;98337.41;;;18.95;50.78
967;BME280;56108;48.730;9.304;2023-05-03T07:56:08;98332.88;;;17.54;52.56
967;BME280;56108;48.730;9.304;2023-05-03T07:58:16;98334.25;;;16.52;57.21
967;BME280;56108;48.730;9.304;2023-05-03T08:00:41;98324.50;;;16.94;58.25
967;BME280;56108;48.730;9.304;2023-05-03T08:02:49;98324.81;;;16.03;61.83
967;BME280;56108;48.730;9.304;2023-05-03T08:04:57;98319.53;;;15.57;64.13
967;BME280;56108;48.730;9.304;2023-05-03T08:07:06;98316.78;;;14.88;66.71
967;BME280;56108;48.730;9.304;2023-05-03T08:09:14;98322.06;;;15.58;68.09
967;BME280;56108;48.730;9.304;2023-05-03T08:11:22;98314.50;;;15.41;67.15
967;BME280;56108;48.730;9.304;2023-05-03T08:13:30;98316.38;;;15.74;65.50
967;BME280;56108;48.730;9.304;2023-05-03T08:15:41;98315.31;;;15.88;67.33
967;BME280;56108;48.730;9.304;2023-05-03T08:17:50;98309.56;;;15.24;67.98
967;BME280;56108;48.730;9.304;2023-05-03T08:19:57;98318.38;;;14.67;71.08
967;BME280;56108;48.730;9.304;2023-05-03T08:22:08;98314.63;;;13.96;76.19
967;BME280;56108;48.730;9.304;2023-05-03T08:24:16;98316.56;;;14.67;75.60
967;BME280;56108;48.730;9.304;2023-05-03T08:26:25;98321.97;;;14.78;75.26
967;BME280;56108;48.730;9.304;2023-05-03T08:28:34;98321.22;;;14.76;74.12
967;BME280;56108;48.730;9.304;2023-05-03T08:30:45;98322.28;;;15.33;71.77
967;BME280;56108;48.730;9.304;2023-05-03T08:32:54;98316.78;;;14.88;72.04
967;BME280;56108;48.730;9.304;2023-05-03T08:35:02;98332.88;;;14.88;70.75
967;BME280;56108;48.730;9.304;2023-05-03T08:37:12;98321.88;;;15.15;69.98
967;BME280;56108;48.730;9.304;2023-05-03T08:39:20;98326.28;;;15.96;71.95
967;BME280;56108;48.730;9.304;2023-05-03T08:41:30;98332.00;;;16.25;66.08
967;BME280;56108;48.730;9.304;2023-05-03T08:43:42;98335.22;;;16.74;65.10
967;BME280;56108;48.730;9.304;2023-05-03T08:45:53;98336.91;;;16.63;62.93
967;BME280;56108;48.730;9.304;2023-05-03T08:48:02;98333.53;;;16.61;65.34
967;BME280;56108;48.730;9.304;2023-05-03T08:50:12;98334.91;;;17.20;63.77
967;BME280;56108;48.730;9.304;2023-05-03T08:52:20;98338.25;;;16.80;63.04
967;BME280;56108;48.730;9.304;2023-05-03T08:54:29;98340.72;;;16.72;62.97
967;BME280;56108;48.730;9.304;2023-05-03T08:56:40;98337.22;;;17.45;61.91
967;BME280;56108;48.730;9.304;2023-05-03T08:58:48;98346.13;;;18.18;59.83
967;BME280;56108;48.730;9.304;2023-05-03T09:01:03;98356.28;;;18.45;57.41
967;BME280;56108;48.730;9.304;2023-05-03T09:03:11;98352.47;;;18.48;56.23
967;BME280;56108;48.730;9.304;2023-05-03T09:05:34;98349.78;;;16.71;58.88
967;BME280;56108;48.730;9.304;2023-05-03T09:07:59;98350.63;;;17.78;59.26
967;BME280;56108;48.730;9.304;2023-05-03T09:10:21;98363.38;;;19.45;53.29
967;BME280;56108;48.730;9.304;2023-05-03T09:12:33;98386.50;;;21.51;48.66
967;BME280;56108;48.730;9.304;2023-05-03T09:14:45;98407.81;;;23.18;44.99
967;BME280;56108;48.730;9.304;2023-05-03T09:17:12;98401.63;;;22.58;44.55
967;BME280;56108;48.730;9.304;2023-05-03T09:19:22;98400.78;;;21.08;46.94
967;BME280;56108;48.730;9.304;2023-05-03T09:21:30;98381.84;;;19.69;51.22
967;BME280;56108;48.730;9.304;2023-05-03T09:23:41;98364.50;;;19.62;53.22
967;BME280;56108;48.730;9.304;2023-05-03T09:25:51;98372.31;;;19.74;51.13
967;BME280;56108;48.730;9.304;2023-05-03T09:27:59;98379.50;;;21.13;48.84
967;BME280;56108;48.730;9.304;2023-05-03T09:30:17;98383.25;;;21.92;47.68
967;BME280;56108;48.730;9.304;2023-05-03T09:32:28;98393.72;;;20.52;48.13
967;BME280;56108;48.730;9.304;2023-05-03T09:34:36;98358.97;;;18.86;53.44
967;BME280;56108;48.730;9.304;2023-05-03T09:36:45;98365.44;;;19.99;50.73
967;BME280;56108;48.730;9.304;2023-05-03T09:38:54;98373.28;;;22.18;48.32
967;BME280;56108;48.730;9.304;2023-05-03T09:41:02;98388.47;;;23.54;44.22
967;BME280;56108;48.730;9.304;2023-05-03T09:43:12;98390.53;;;23.52;43.54
967;BME280;56108;48.730;9.304;2023-05-03T09:45:23;98387.41;;;22.64;44.99
967;BME280;56108;48.730;9.304;2023-05-03T09:47:48;98375.81;;;21.94;46.61
967;BME280;56108;48.730;9.304;2023-05-03T09:49:56;98369.53;;;20.78;47.33
967;BME280;56108;48.730;9.304;2023-05-03T09:52:05;98369.47;;;21.59;46.58
967;BME280;56108;48.730;9.304;2023-05-03T09:54:14;98371.53;;;22.43;44.29
967;BME280;56108;48.730;9.304;2023-05-03T09:56:24;98377.88;;;22.52;44.37
967;BME280;56108;48.730;9.304;2023-05-03T09:58:33;98393.06;;;22.79;40.80
967;BME280;56108;48.730;9.304;2023-05-03T10:00:42;98379.38;;;20.69;45.87
967;BME280;56108;48.730;9.304;2023-05-03T10:03:00;98382.13;;;22.20;43.29
967;BME280;56108;48.730;9.304;2023-05-03T10:05:10;98389.50;;;23.29;41.00
967;BME280;56108;48.730;9.304;2023-05-03T10:07:22;98379.47;;;20.50;45.34
967;BME280;56108;48.730;9.304;2023-05-03T10:09:35;98363.19;;;19.95;47.85
967;BME280;56108;48.730;9.304;2023-05-03T10:11:47;98346.53;;;17.41;51.90
967;BME280;56108;48.730;9.304;2023-05-03T10:13:56;98331.63;;;16.84;55.46
967;BME280;56108;48.730;9.304;2023-05-03T10:16:07;98326.16;;;16.63;56.62
967;BME280;56108;48.730;9.304;2023-05-03T10:18:22;98317.72;;;16.68;56.16
967;BME280;56108;48.730;9.304;2023-05-03T10:20:35;98310.44;;;15.82;60.44
967;BME280;56108;48.730;9.304;2023-05-03T10:23:07;98297.78;;;16.38;63.56
967;BME280;56108;48.730;9.304;2023-05-03T10:25:15;98310.47;;;16.48;60.24
967;BME280;56108;48.730;9.304;2023-05-03T10:27:24;98312.81;;;17.89;56.97
967;BME280;56108;48.730;9.304;2023-05-03T10:29:49;98324.97;;;18.54;52.61
967;BME280;56108;48.730;9.304;2023-05-03T10:31:58;98324.81;;;18.56;51.98
967;BME280;56108;48.730;9.304;2023-05-03T10:34:21;98317.72;;;17.74;53.12
967;BME280;56108;48.730;9.304;2023-05-03T10:36:30;98319.56;;;18.44;52.32
967;BME280;56108;48.730;9.304;2023-05-03T10:38:53;98324.00;;;17.84;52.77
967;BME280;56108;48.730;9.304;2023-05-03T10:41:03;98310.91;;;17.49;52.19
967;BME280;56108;48.730;9.304;2023-05-03T10:43:41;98326.47;;;18.97;50.35
967;BME280;56108;48.730;9.304;2023-05-03T10:45:50;98320.03;;;19.37;51.36
967;BME280;56108;48.730;9.304;2023-05-03T10:48:16;98325.72;;;18.25;51.26
967;BME280;56108;48.730;9.304;2023-05-03T10:50:29;98313.50;;;18.21;54.82
967;BME280;56108;48.730;9.304;2023-05-03T10:52:49;98308.69;;;17.85;54.56
967;BME280;56108;48.730;9.304;2023-05-03T10:54:57;98306.78;;;18.46;56.01
967;BME280;56108;48.730;9.304;2023-05-03T10:57:06;98328.44;;;19.14;50.97
967;BME280;56108;48.730;9.304;2023-05-03T10:59:17;98327.09;;;18.10;53.07
967;BME280;56108;48.730;9.304;2023-05-03T11:01:28;98316.91;;;17.62;53.01
967;BME280;56108;48.730;9.304;2023-05-03T11:03:51;98310.78;;;16.54;56.07
967;BME280;56108;48.730;9.304;2023-05-03T11:06:01;98298.06;;;16.02;57.59
967;BME280;56108;48.730;9.304;2023-05-03T11:08:11;98300.63;;;16.26;56.91
967;BME280;56108;48.730;9.304;2023-05-03T11:10:21;98304.59;;;16.97;53.83
967;BME280;56108;48.730;9.304;2023-05-03T11:12:29;98294.31;;;17.23;54.71
967;BME280;56108;48.730;9.304;2023-05-03T11:14:38;98286.25;;;17.54;56.00
967;BME280;56108;48.730;9.304;2023-05-03T11:16:46;98294.22;;;16.92;54.66
967;BME280;56108;48.730;9.304;2023-05-03T11:18:54;98287.47;;;17.19;56.71
967;BME280;56108;48.730;9.304;2023-05-03T11:21:05;98284.72;;;16.34;56.25
967;BME280;56108;48.730;9.304;2023-05-03T11:23:13;98285.09;;;16.40;55.48
967;BME280;56108;48.730;9.304;2023-05-03T11:25:22;98279.63;;;16.63;55.33
967;BME280;56108;48.730;9.304;2023-05-03T11:27:31;98279.44;;;16.43;55.57
967;BME280;56108;48.730;9.304;2023-05-03T11:29:39;98282.34;;;17.16;53.88
967;BME280;56108;48.730;9.304;2023-05-03T11:31:47;98273.16;;;16.65;54.30
967;BME280;56108;48.730;9.304;2023-05-03T11:33:55;98278.66;;;16.21;55.11
967;BME280;56108;48.730;9.304;2023-05-03T11:36:07;98266.63;;;15.93;56.49
967;BME280;56108;48.730;9.304;2023-05-03T11:38:17;98259.47;;;16.25;56.09
967;BME280;56108;48.730;9.304;2023-05-03T11:40:27;98257.91;;;16.55;55.43
967;BME280;56108;48.730;9.304;2023-05-03T11:42:49;98256.19;;;16.97;54.46
967;BME280;56108;48.730;9.304;2023-05-03T11:44:59;98253.03;;;16.92;54.67
967;BME280;56108;48.730;9.304;2023-05-03T11:47:08;98262.41;;;17.39;54.47
967;BME280;56108;48.730;9.304;2023-05-03T11:49:17;98269.59;;;17.90;53.41
967;BME280;56108;48.730;9.304;2023-05-03T11:51:28;98267.03;;;17.58;52.78
967;BME280;56108;48.730;9.304;2023-05-03T11:53:37;98278.81;;;17.36;50.62